sensor_id;sensor_type;location;lat;lon;timestamp;temperature;humidity
1455;DHT22;721;48.168;12.818;2023-02-28T00:01:04;-0.20;1.90
1455;DHT22;721;48.168;12.818;2023-02-28T00:03:31;-0.30;3.00
1455;DHT22;721;48.168;12.818;2023-02-28T00:06:02;-0.30;2.90
1455;DHT22;721;48.168;12.818;2023-02-28T00:08:29;-0.30;3.00
1455;DHT22;721;48.168;12.818;2023-02-28T00:10:56;-0.40;3.70
1455;DHT22;721;48.168;12.818;2023-02-28T00:13:26;-0.30;3.80
1455;DHT22;721;48.168;12.818;2023-02-28T00:16:03;-0.60;4.70
1455;DHT22;721;48.168;12.818;2023-02-28T00:18:30;-0.60;5.30
1455;DHT22;721;48.168;12.818;2023-02-28T00:20:56;-0.60;5.40
1455;DHT22;721;48.168;12.818;2023-02-28T00:23:23;-0.60;5.70
1455;DHT22;721;48.168;12.818;2023-02-28T00:25:51;-0.50;5.40
1455;DHT22;721;48.168;12.818;2023-02-28T00:28:18;-0.60;6.60
1455;DHT22;721;48.168;12.818;2023-02-28T00:30:45;-0.60;6.20
1455;DHT22;721;48.168;12.818;2023-02-28T00:33:13;-0.50;5.90
1455;DHT22;721;48.168;12.818;2023-02-28T00:35:39;-0.60;6.50
1455;DHT22;721;48.168;12.818;2023-02-28T00:38:06;-0.50;6.30
1455;DHT22;721;48.168;12.818;2023-02-28T00:40:33;-0.50;6.20
1455;DHT22;721;48.168;12.818;2023-02-28T00:43:00;-0.50;6.10
1455;DHT22;721;48.168;12.818;2023-02-28T00:45:27;-0.50;5.90
1455;DHT22;721;48.168;12.818;2023-02-28T00:47:53;-0.50;6.60
1455;DHT22;721;48.168;12.818;2023-02-28T00:50:21;-0.60;6.80
1455;DHT22;721;48.168;12.818;2023-02-28T00:52:48;-0.60;6.60
1455;DHT22;721;48.168;12.818;2023-02-28T00:55:15;-0.60;6.80
1455;DHT22;721;48.168;12.818;2023-02-28T00:57:42;-0.60;7.10
1455;DHT22;721;48.168;12.818;2023-02-28T01:00:10;-0.70;7.70
1455;DHT22;721;48.168;12.818;2023-02-28T01:02:37;-0.70;8.10
1455;DHT22;721;48.168;12.818;2023-02-28T01:05:04;-0.70;8.30
1455;DHT22;721;48.168;12.818;2023-02-28T01:07:32;-0.70;8.50
1455;DHT22;721;48.168;12.818;2023-02-28T01:09:59;-0.70;8.80
1455;DHT22;721;48.168;12.818;2023-02-28T01:12:26;-0.70;8.50
1455;DHT22;721;48.168;12.818;2023-02-28T01:14:52;-0.60;8.00
1455;DHT22;721;48.168;12.818;2023-02-28T01:17:19;-0.70;8.60
1455;DHT22;721;48.168;12.818;2023-02-28T01:19:46;-0.70;8.40
1455;DHT22;721;48.168;12.818;2023-02-28T01:22:13;-0.80;9.80
1455;DHT22;721;48.168;12.818;2023-02-28T01:24:41;-0.70;9.10
1455;DHT22;721;48.168;12.818;2023-02-28T01:27:07;-0.70;9.40
1455;DHT22;721;48.168;12.818;2023-02-28T01:29:35;-0.80;10.20
1455;DHT22;721;48.168;12.818;2023-02-28T01:32:01;-0.80;9.90
1455;DHT22;721;48.168;12.818;2023-02-28T01:34:28;-0.70;9.70
1455;DHT22;721;48.168;12.818;2023-02-28T01:36:55;-0.80;9.50
1455;DHT22;721;48.168;12.818;2023-02-28T01:39:24;-0.70;9.90
1455;DHT22;721;48.168;12.818;2023-02-28T01:41:52;-0.80;10.00
1455;DHT22;721;48.168;12.818;2023-02-28T01:47:25;-0.90;11.00
1455;DHT22;721;48.168;12.818;2023-02-28T01:49:52;-1.00;11.40
1455;DHT22;721;48.168;12.818;2023-02-28T01:52:20;-1.00;11.70
1455;DHT22;721;48.168;12.818;2023-02-28T01:54:51;-1.00;11.70
1455;DHT22;721;48.168;12.818;2023-02-28T01:57:21;-1.00;12.10
1455;DHT22;721;48.168;12.818;2023-02-28T01:59:53;-1.00;12.70
1455;DHT22;721;48.168;12.818;2023-02-28T02:02:23;-1.10;13.50
1455;DHT22;721;48.168;12.818;2023-02-28T02:04:53;-1.20;13.70
1455;DHT22;721;48.168;12.818;2023-02-28T02:07:21;-1.10;13.80
1455;DHT22;721;48.168;12.818;2023-02-28T02:09:49;-1.20;14.60
1455;DHT22;721;48.168;12.818;2023-02-28T02:12:25;-1.20;14.60
1455;DHT22;721;48.168;12.818;2023-02-28T02:15:02;-1.20;15.10
1455;DHT22;721;48.168;12.818;2023-02-28T02:17:35;-1.20;14.70
1455;DHT22;721;48.168;12.818;2023-02-28T02:20:27;-1.20;14.90
1455;DHT22;721;48.168;12.818;2023-02-28T02:23:26;-1.20;14.50
1455;DHT22;721;48.168;12.818;2023-02-28T02:25:57;-1.10;14.70
1455;DHT22;721;48.168;12.818;2023-02-28T02:28:51;-1.10;14.00
1455;DHT22;721;48.168;12.818;2023-02-28T02:31:37;-1.10;14.20
1455;DHT22;721;48.168;12.818;2023-02-28T02:34:37;-1.20;14.90
1455;DHT22;721;48.168;12.818;2023-02-28T02:37:17;-1.10;14.30
1455;DHT22;721;48.168;12.818;2023-02-28T02:39:52;-1.10;14.60
1455;DHT22;721;48.168;12.818;2023-02-28T02:42:24;-1.10;14.60
1455;DHT22;721;48.168;12.818;2023-02-28T02:44:58;-1.10;14.40
1455;DHT22;721;48.168;12.818;2023-02-28T02:47:29;-1.10;14.20
1455;DHT22;721;48.168;12.818;2023-02-28T02:50:02;-1.10;14.30
1455;DHT22;721;48.168;12.818;2023-02-28T02:52:35;-1.10;14.00
1455;DHT22;721;48.168;12.818;2023-02-28T02:55:04;-1.10;14.40
1455;DHT22;721;48.168;12.818;2023-02-28T02:57:35;-1.10;14.90
1455;DHT22;721;48.168;12.818;2023-02-28T03:00:04;-1.10;15.00
1455;DHT22;721;48.168;12.818;2023-02-28T03:02:34;-1.10;14.70
1455;DHT22;721;48.168;12.818;2023-02-28T03:05:07;-1.20;15.60
1455;DHT22;721;48.168;12.818;2023-02-28T03:07:35;-1.20;15.90
1455;DHT22;721;48.168;12.818;2023-02-28T03:10:02;-1.20;15.30
1455;DHT22;721;48.168;12.818;2023-02-28T03:12:33;-1.10;15.90
1455;DHT22;721;48.168;12.818;2023-02-28T03:15:10;-1.20;15.40
1455;DHT22;721;48.168;12.818;2023-02-28T03:17:50;-1.20;16.30
1455;DHT22;721;48.168;12.818;2023-02-28T03:20:32;-1.20;15.90
1455;DHT22;721;48.168;12.818;2023-02-28T03:23:07;-1.20;15.90
1455;DHT22;721;48.168;12.818;2023-02-28T03:25:44;-1.20;16.30
1455;DHT22;721;48.168;12.818;2023-02-28T03:28:17;-1.40;16.60
1455;DHT22;721;48.168;12.818;2023-02-28T03:30:50;-1.30;16.90
1455;DHT22;721;48.168;12.818;2023-02-28T03:33:22;-1.30;16.30
1455;DHT22;721;48.168;12.818;2023-02-28T03:35:53;-1.30;16.40
1455;DHT22;721;48.168;12.818;2023-02-28T03:38:23;-1.30;16.80
1455;DHT22;721;48.168;12.818;2023-02-28T03:40:57;-1.30;16.30
1455;DHT22;721;48.168;12.818;2023-02-28T03:43:28;-1.20;16.30
1455;DHT22;721;48.168;12.818;2023-02-28T03:45:56;-1.30;16.00
1455;DHT22;721;48.168;12.818;2023-02-28T03:48:27;-1.30;16.20
1455;DHT22;721;48.168;12.818;2023-02-28T03:51:00;-1.30;16.50
1455;DHT22;721;48.168;12.818;2023-02-28T03:53:31;-1.30;16.20
1455;DHT22;721;48.168;12.818;2023-02-28T03:56:03;-1.30;16.80
1455;DHT22;721;48.168;12.818;2023-02-28T03:58:37;-1.40;17.10
1455;DHT22;721;48.168;12.818;2023-02-28T04:01:08;-1.30;16.10
1455;DHT22;721;48.168;12.818;2023-02-28T04:03:37;-1.30;16.60
1455;DHT22;721;48.168;12.818;2023-02-28T04:06:07;-1.40;17.00
1455;DHT22;721;48.168;12.818;2023-02-28T04:08:34;-1.40;17.00
1455;DHT22;721;48.168;12.818;2023-02-28T04:11:04;-1.40;17.60
1455;DHT22;721;48.168;12.818;2023-02-28T04:13:33;-1.50;18.10
1455;DHT22;721;48.168;12.818;2023-02-28T04:15:59;-1.40;17.90
1455;DHT22;721;48.168;12.818;2023-02-28T04:18:26;-1.40;17.10
1455;DHT22;721;48.168;12.818;2023-02-28T04:20:53;-1.40;16.90
1455;DHT22;721;48.168;12.818;2023-02-28T04:23:21;-1.50;17.50
1455;DHT22;721;48.168;12.818;2023-02-28T04:25:48;-1.40;17.80
1455;DHT22;721;48.168;12.818;2023-02-28T04:28:16;-1.40;17.40
1455;DHT22;721;48.168;12.818;2023-02-28T04:30:43;-1.40;17.10
1455;DHT22;721;48.168;12.818;2023-02-28T04:33:09;-1.40;17.10
1455;DHT22;721;48.168;12.818;2023-02-28T04:35:37;-1.40;17.50
1455;DHT22;721;48.168;12.818;2023-02-28T04:38:03;-1.50;18.10
1455;DHT22;721;48.168;12.818;2023-02-28T04:40:31;-1.50;18.30
1455;DHT22;721;48.168;12.818;2023-02-28T04:42:58;-1.40;18.10
1455;DHT22;721;48.168;12.818;2023-02-28T04:45:25;-1.40;17.70
1455;DHT22;721;48.168;12.818;2023-02-28T04:47:52;-1.40;17.60
1455;DHT22;721;48.168;12.818;2023-02-28T04:50:19;-1.40;17.70
1455;DHT22;721;48.168;12.818;2023-02-28T04:52:45;-1.40;18.00
1455;DHT22;721;48.168;12.818;2023-02-28T04:55:12;-1.60;18.90
1455;DHT22;721;48.168;12.818;2023-02-28T04:57:40;-1.60;19.30
1455;DHT22;721;48.168;12.818;2023-02-28T05:00:09;-1.60;19.10
1455;DHT22;721;48.168;12.818;2023-02-28T05:02:37;-1.50;18.80
1455;DHT22;721;48.168;12.818;2023-02-28T05:05:04;-1.50;18.30
1455;DHT22;721;48.168;12.818;2023-02-28T05:07:31;-1.40;18.80
1455;DHT22;721;48.168;12.818;2023-02-28T05:09:58;-1.40;18.00
1455;DHT22;721;48.168;12.818;2023-02-28T05:12:25;-1.40;18.50
1455;DHT22;721;48.168;12.818;2023-02-28T05:14:53;-1.40;18.40
1455;DHT22;721;48.168;12.818;2023-02-28T05:17:19;-1.40;17.70
1455;DHT22;721;48.168;12.818;2023-02-28T05:19:46;-1.30;17.90
1455;DHT22;721;48.168;12.818;2023-02-28T05:22:14;-1.30;17.10
1455;DHT22;721;48.168;12.818;2023-02-28T05:24:42;-1.40;17.90
1455;DHT22;721;48.168;12.818;2023-02-28T05:27:09;-1.30;18.10
1455;DHT22;721;48.168;12.818;2023-02-28T05:29:35;-1.40;17.30
1455;DHT22;721;48.168;12.818;2023-02-28T05:32:09;-1.30;17.80
1455;DHT22;721;48.168;12.818;2023-02-28T05:34:36;-1.40;17.90
1455;DHT22;721;48.168;12.818;2023-02-28T05:37:03;-1.40;17.60
1455;DHT22;721;48.168;12.818;2023-02-28T05:39:30;-1.50;18.30
1455;DHT22;721;48.168;12.818;2023-02-28T05:41:57;-1.40;18.10
1455;DHT22;721;48.168;12.818;2023-02-28T05:44:24;-1.40;18.30
1455;DHT22;721;48.168;12.818;2023-02-28T05:46:51;-1.40;17.60
1455;DHT22;721;48.168;12.818;2023-02-28T05:49:19;-1.40;17.60
1455;DHT22;721;48.168;12.818;2023-02-28T05:51:46;-1.30;17.40
1455;DHT22;721;48.168;12.818;2023-02-28T05:54:12;-1.40;17.20
1455;DHT22;721;48.168;12.818;2023-02-28T05:56:39;-1.40;17.40
1455;DHT22;721;48.168;12.818;2023-02-28T05:59:09;-1.30;17.40
1455;DHT22;721;48.168;12.818;2023-02-28T06:01:38;-1.30;17.30
1455;DHT22;721;48.168;12.818;2023-02-28T06:04:07;-1.30;17.00
1455;DHT22;721;48.168;12.818;2023-02-28T06:06:35;-1.40;16.90
1455;DHT22;721;48.168;12.818;2023-02-28T06:09:03;-1.30;17.00
1455;DHT22;721;48.168;12.818;2023-02-28T06:11:29;-1.30;16.80
1455;DHT22;721;48.168;12.818;2023-02-28T06:13:58;-1.20;16.10
1455;DHT22;721;48.168;12.818;2023-02-28T06:16:26;-1.20;16.10
1455;DHT22;721;48.168;12.818;2023-02-28T06:18:54;-1.20;15.60
1455;DHT22;721;48.168;12.818;2023-02-28T06:21:22;-1.20;15.90
1455;DHT22;721;48.168;12.818;2023-02-28T06:23:50;-1.10;16.00
1455;DHT22;721;48.168;12.818;2023-02-28T06:26:17;-1.10;15.20
1455;DHT22;721;48.168;12.818;2023-02-28T06:28:44;-1.10;15.50
1455;DHT22;721;48.168;12.818;2023-02-28T06:31:12;-1.10;15.00
1455;DHT22;721;48.168;12.818;2023-02-28T06:33:40;-1.10;14.70
1455;DHT22;721;48.168;12.818;2023-02-28T06:36:08;-1.10;14.70
1455;DHT22;721;48.168;12.818;2023-02-28T06:38:35;-1.10;14.90
1455;DHT22;721;48.168;12.818;2023-02-28T06:41:04;-1.20;14.70
1455;DHT22;721;48.168;12.818;2023-02-28T06:43:34;-1.30;14.40
1455;DHT22;721;48.168;12.818;2023-02-28T06:46:03;-1.30;15.40
1455;DHT22;721;48.168;12.818;2023-02-28T06:48:30;-1.20;15.90
1455;DHT22;721;48.168;12.818;2023-02-28T06:51:02;-1.20;16.30
1455;DHT22;721;48.168;12.818;2023-02-28T06:53:29;-1.20;15.40
1455;DHT22;721;48.168;12.818;2023-02-28T06:55:56;-1.20;15.40
1455;DHT22;721;48.168;12.818;2023-02-28T06:58:24;-1.00;15.30
1455;DHT22;721;48.168;12.818;2023-02-28T07:00:52;-1.10;15.90
1455;DHT22;721;48.168;12.818;2023-02-28T07:03:20;-1.10;15.50
1455;DHT22;721;48.168;12.818;2023-02-28T07:05:47;-1.00;15.00
1455;DHT22;721;48.168;12.818;2023-02-28T07:08:14;-1.10;14.20
1455;DHT22;721;48.168;12.818;2023-02-28T07:10:41;-1.00;13.90
1455;DHT22;721;48.168;12.818;2023-02-28T07:13:09;-1.00;14.00
1455;DHT22;721;48.168;12.818;2023-02-28T07:15:37;-1.00;14.10
1455;DHT22;721;48.168;12.818;2023-02-28T07:18:04;-0.90;13.40
1455;DHT22;721;48.168;12.818;2023-02-28T07:20:31;-0.90;13.30
1455;DHT22;721;48.168;12.818;2023-02-28T07:22:57;-0.90;12.50
1455;DHT22;721;48.168;12.818;2023-02-28T07:25:27;-1.00;12.80
1455;DHT22;721;48.168;12.818;2023-02-28T07:27:54;-1.00;13.20
1455;DHT22;721;48.168;12.818;2023-02-28T07:30:21;-1.00;13.60
1455;DHT22;721;48.168;12.818;2023-02-28T07:32:50;-0.90;12.80
1455;DHT22;721;48.168;12.818;2023-02-28T07:35:16;-0.80;12.20
1455;DHT22;721;48.168;12.818;2023-02-28T07:37:44;-0.80;12.50
1455;DHT22;721;48.168;12.818;2023-02-28T07:40:13;-0.70;12.20
1455;DHT22;721;48.168;12.818;2023-02-28T07:42:41;-0.70;12.20
1455;DHT22;721;48.168;12.818;2023-02-28T07:45:09;-0.80;12.20
1455;DHT22;721;48.168;12.818;2023-02-28T07:47:37;-0.70;12.20
1455;DHT22;721;48.168;12.818;2023-02-28T07:50:06;-0.60;11.30
1455;DHT22;721;48.168;12.818;2023-02-28T07:52:33;-0.50;11.30
1455;DHT22;721;48.168;12.818;2023-02-28T07:55:00;-0.60;11.80
1455;DHT22;721;48.168;12.818;2023-02-28T08:00:49;-0.40;10.70
1455;DHT22;721;48.168;12.818;2023-02-28T08:03:16;-0.30;10.30
1455;DHT22;721;48.168;12.818;2023-02-28T08:05:45;-0.20;10.60
1455;DHT22;721;48.168;12.818;2023-02-28T08:08:13;-0.10;9.90
1455;DHT22;721;48.168;12.818;2023-02-28T08:10:40;0.00;9.60
1455;DHT22;721;48.168;12.818;2023-02-28T08:13:07;0.10;9.30
1455;DHT22;721;48.168;12.818;2023-02-28T08:15:35;0.30;8.60
1455;DHT22;721;48.168;12.818;2023-02-28T08:18:02;0.30;7.00
1455;DHT22;721;48.168;12.818;2023-02-28T08:20:29;0.40;6.20
1455;DHT22;721;48.168;12.818;2023-02-28T08:22:57;0.30;6.60
1455;DHT22;721;48.168;12.818;2023-02-28T08:25:24;0.40;6.10
1455;DHT22;721;48.168;12.818;2023-02-28T08:27:51;0.50;4.90
1455;DHT22;721;48.168;12.818;2023-02-28T08:30:21;0.50;4.90
1455;DHT22;721;48.168;12.818;2023-02-28T08:32:48;0.50;3.90
1455;DHT22;721;48.168;12.818;2023-02-28T08:35:15;0.50;3.60
1455;DHT22;721;48.168;12.818;2023-02-28T08:37:41;0.60;4.90
1455;DHT22;721;48.168;12.818;2023-02-28T08:40:10;0.60;3.80
1455;DHT22;721;48.168;12.818;2023-02-28T08:42:43;0.40;4.80
1455;DHT22;721;48.168;12.818;2023-02-28T08:45:10;0.40;5.40
1455;DHT22;721;48.168;12.818;2023-02-28T08:47:37;0.40;4.80
1455;DHT22;721;48.168;12.818;2023-02-28T08:50:05;0.40;5.20
1455;DHT22;721;48.168;12.818;2023-02-28T08:52:32;0.50;5.10
1455;DHT22;721;48.168;12.818;2023-02-28T08:54:59;0.60;4.30
1455;DHT22;721;48.168;12.818;2023-02-28T08:57:27;0.80;3.70
1455;DHT22;721;48.168;12.818;2023-02-28T08:59:54;0.70;4.00
1455;DHT22;721;48.168;12.818;2023-02-28T09:02:21;0.70;4.80
1455;DHT22;721;48.168;12.818;2023-02-28T09:04:48;0.90;4.20
1455;DHT22;721;48.168;12.818;2023-02-28T09:07:14;1.10;4.00
1455;DHT22;721;48.168;12.818;2023-02-28T09:09:41;1.20;3.50
1455;DHT22;721;48.168;12.818;2023-02-28T09:12:19;1.30;1.20
1455;DHT22;721;48.168;12.818;2023-02-28T09:14:47;1.60;1.00
1455;DHT22;721;48.168;12.818;2023-02-28T09:17:14;1.40;1.00
1455;DHT22;721;48.168;12.818;2023-02-28T09:19:41;1.40;1.00
1455;DHT22;721;48.168;12.818;2023-02-28T09:22:08;1.50;1.00
1455;DHT22;721;48.168;12.818;2023-02-28T09:24:35;1.60;1.00
1455;DHT22;721;48.168;12.818;2023-02-28T09:27:02;1.70;1.00
1455;DHT22;721;48.168;12.818;2023-02-28T09:29:29;1.70;1.00
1455;DHT22;721;48.168;12.818;2023-02-28T09:31:57;1.60;1.00
1455;DHT22;721;48.168;12.818;2023-02-28T09:34:25;1.80;1.00
1455;DHT22;721;48.168;12.818;2023-02-28T09:36:51;1.90;1.00
1455;DHT22;721;48.168;12.818;2023-02-28T09:39:20;2.10;1.00
1455;DHT22;721;48.168;12.818;2023-02-28T09:41:50;2.10;1.00
1455;DHT22;721;48.168;12.818;2023-02-28T09:44:22;2.20;1.00
1455;DHT22;721;48.168;12.818;2023-02-28T09:46:54;2.30;1.00
1455;DHT22;721;48.168;12.818;2023-02-28T09:49:27;2.40;1.00
1455;DHT22;721;48.168;12.818;2023-02-28T09:51:57;2.50;1.00
1455;DHT22;721;48.168;12.818;2023-02-28T09:54:28;2.60;1.00
1455;DHT22;721;48.168;12.818;2023-02-28T09:56:59;2.50;1.00
1455;DHT22;721;48.168;12.818;2023-02-28T09:59:36;2.60;1.00
1455;DHT22;721;48.168;12.818;2023-02-28T10:02:16;2.70;1.00
1455;DHT22;721;48.168;12.818;2023-02-28T10:04:51;2.50;1.00
1455;DHT22;721;48.168;12.818;2023-02-28T10:07:36;2.80;1.00
1455;DHT22;721;48.168;12.818;2023-02-28T10:10:15;2.80;1.00
1455;DHT22;721;48.168;12.818;2023-02-28T10:12:45;2.70;1.00
1455;DHT22;721;48.168;12.818;2023-02-28T10:15:14;2.70;1.00
1455;DHT22;721;48.168;12.818;2023-02-28T10:17:43;2.80;1.00
1455;DHT22;721;48.168;12.818;2023-02-28T10:20:15;2.90;1.00
1455;DHT22;721;48.168;12.818;2023-02-28T10:22:53;3.10;1.00
1455;DHT22;721;48.168;12.818;2023-02-28T10:25:25;3.30;1.00
1455;DHT22;721;48.168;12.818;2023-02-28T10:27:54;3.30;1.00
1455;DHT22;721;48.168;12.818;2023-02-28T10:30:21;3.50;1.00
1455;DHT22;721;48.168;12.818;2023-02-28T10:32:49;3.60;1.00
1455;DHT22;721;48.168;12.818;2023-02-28T10:35:22;3.70;1.00
1455;DHT22;721;48.168;12.818;2023-02-28T10:37:50;3.70;1.00
1455;DHT22;721;48.168;12.818;2023-02-28T10:40:30;3.80;1.00
1455;DHT22;721;48.168;12.818;2023-02-28T10:42:59;3.70;1.00
1455;DHT22;721;48.168;12.818;2023-02-28T10:45:28;3.80;1.00
1455;DHT22;721;48.168;12.818;2023-02-28T10:47:57;3.90;1.00
1455;DHT22;721;48.168;12.818;2023-02-28T10:50:29;4.10;1.00
1455;DHT22;721;48.168;12.818;2023-02-28T10:53:07;4.00;1.00
1455;DHT22;721;48.168;12.818;2023-02-28T10:55:40;4.20;1.00
1455;DHT22;721;48.168;12.818;2023-02-28T10:58:21;4.20;1.00
1455;DHT22;721;48.168;12.818;2023-02-28T11:00:49;4.20;1.00
1455;DHT22;721;48.168;12.818;2023-02-28T11:03:40;4.40;1.00
1455;DHT22;721;48.168;12.818;2023-02-28T11:06:15;4.60;1.00
1455;DHT22;721;48.168;12.818;2023-02-28T11:08:47;4.60;1.00
1455;DHT22;721;48.168;12.818;2023-02-28T11:11:15;4.60;1.00
1455;DHT22;721;48.168;12.818;2023-02-28T11:13:44;4.80;1.00
1455;DHT22;721;48.168;12.818;2023-02-28T11:16:14;4.90;1.00
1455;DHT22;721;48.168;12.818;2023-02-28T11:18:44;5.00;1.00
1455;DHT22;721;48.168;12.818;2023-02-28T11:21:20;4.90;1.00
1455;DHT22;721;48.168;12.818;2023-02-28T11:23:49;5.00;1.00
1455;DHT22;721;48.168;12.818;2023-02-28T11:26:36;5.10;1.00
1455;DHT22;721;48.168;12.818;2023-02-28T11:29:10;5.10;1.00
1455;DHT22;721;48.168;12.818;2023-02-28T11:31:37;5.40;1.00
1455;DHT22;721;48.168;12.818;2023-02-28T11:34:23;5.60;1.00
1455;DHT22;721;48.168;12.818;2023-02-28T11:36:53;5.50;1.00
1455;DHT22;721;48.168;12.818;2023-02-28T11:39:21;5.70;1.00
1455;DHT22;721;48.168;12.818;2023-02-28T11:42:07;5.80;1.00
1455;DHT22;721;48.168;12.818;2023-02-28T11:44:48;5.90;1.00
1455;DHT22;721;48.168;12.818;2023-02-28T11:47:28;5.90;1.00
1455;DHT22;721;48.168;12.818;2023-02-28T11:50:08;5.90;1.00
1455;DHT22;721;48.168;12.818;2023-02-28T11:52:44;6.00;1.00
1455;DHT22;721;48.168;12.818;2023-02-28T11:55:17;6.10;1.00
1455;DHT22;721;48.168;12.818;2023-02-28T11:58:05;6.20;1.00
1455;DHT22;721;48.168;12.818;2023-02-28T12:00:43;6.40;1.00
1455;DHT22;721;48.168;12.818;2023-02-28T12:03:22;6.50;1.00
1455;DHT22;721;48.168;12.818;2023-02-28T12:06:01;6.70;1.00
1455;DHT22;721;48.168;12.818;2023-02-28T12:08:45;6.70;1.00
1455;DHT22;721;48.168;12.818;2023-02-28T12:11:23;7.00;1.00
1455;DHT22;721;48.168;12.818;2023-02-28T12:14:03;7.10;1.00
1455;DHT22;721;48.168;12.818;2023-02-28T12:16:44;7.40;1.00
1455;DHT22;721;48.168;12.818;2023-02-28T12:19:19;7.70;1.00
1455;DHT22;721;48.168;12.818;2023-02-28T12:22:01;7.90;1.00
1455;DHT22;721;48.168;12.818;2023-02-28T12:25:01;7.70;1.00
1455;DHT22;721;48.168;12.818;2023-02-28T12:27:32;7.70;1.00
1455;DHT22;721;48.168;12.818;2023-02-28T12:30:03;7.90;1.00
1455;DHT22;721;48.168;12.818;2023-02-28T12:32:34;7.90;1.00
1455;DHT22;721;48.168;12.818;2023-02-28T12:35:10;7.80;1.00
1455;DHT22;721;48.168;12.818;2023-02-28T12:37:40;8.20;1.00
1455;DHT22;721;48.168;12.818;2023-02-28T12:40:15;8.50;1.00
1455;DHT22;721;48.168;12.818;2023-02-28T12:42:46;8.50;1.00
1455;DHT22;721;48.168;12.818;2023-02-28T12:45:18;8.70;1.00
1455;DHT22;721;48.168;12.818;2023-02-28T12:47:50;8.90;1.00
1455;DHT22;721;48.168;12.818;2023-02-28T12:50:18;9.10;1.00
1455;DHT22;721;48.168;12.818;2023-02-28T12:52:51;9.30;1.00
1455;DHT22;721;48.168;12.818;2023-02-28T12:55:25;9.40;1.00
1455;DHT22;721;48.168;12.818;2023-02-28T12:58:05;9.30;1.00
1455;DHT22;721;48.168;12.818;2023-02-28T13:00:36;9.30;1.00
1455;DHT22;721;48.168;12.818;2023-02-28T13:03:31;9.20;1.00
1455;DHT22;721;48.168;12.818;2023-02-28T13:06:09;9.30;1.00
1455;DHT22;721;48.168;12.818;2023-02-28T13:08:59;9.40;1.00
1455;DHT22;721;48.168;12.818;2023-02-28T13:11:31;9.70;1.00
1455;DHT22;721;48.168;12.818;2023-02-28T13:14:00;9.60;1.00
1455;DHT22;721;48.168;12.818;2023-02-28T13:16:27;9.60;1.00
1455;DHT22;721;48.168;12.818;2023-02-28T13:19:09;9.90;1.00
1455;DHT22;721;48.168;12.818;2023-02-28T13:21:43;9.60;1.00
1455;DHT22;721;48.168;12.818;2023-02-28T13:24:11;9.60;1.00
1455;DHT22;721;48.168;12.818;2023-02-28T13:27:38;9.40;1.00
1455;DHT22;721;48.168;12.818;2023-02-28T13:33:27;10.10;1.00
1455;DHT22;721;48.168;12.818;2023-02-28T13:36:07;10.40;1.00
1455;DHT22;721;48.168;12.818;2023-02-28T13:38:37;10.80;1.00
1455;DHT22;721;48.168;12.818;2023-02-28T13:41:46;10.50;1.00
1455;DHT22;721;48.168;12.818;2023-02-28T13:44:16;10.70;1.00
1455;DHT22;721;48.168;12.818;2023-02-28T13:47:18;10.50;1.00
1455;DHT22;721;48.168;12.818;2023-02-28T13:49:46;10.00;1.00
1455;DHT22;721;48.168;12.818;2023-02-28T13:52:16;9.60;1.00
1455;DHT22;721;48.168;12.818;2023-02-28T13:57:49;9.30;1.00
1455;DHT22;721;48.168;12.818;2023-02-28T14:00:33;9.60;1.00
1455;DHT22;721;48.168;12.818;2023-02-28T14:06:16;9.50;1.00
1455;DHT22;721;48.168;12.818;2023-02-28T14:08:52;9.90;1.00
1455;DHT22;721;48.168;12.818;2023-02-28T14:11:33;10.20;1.00
1455;DHT22;721;48.168;12.818;2023-02-28T14:14:02;9.90;1.00
1455;DHT22;721;48.168;12.818;2023-02-28T14:16:39;9.80;1.00
1455;DHT22;721;48.168;12.818;2023-02-28T14:19:12;9.90;1.00
1455;DHT22;721;48.168;12.818;2023-02-28T14:21:48;10.40;1.00
1455;DHT22;721;48.168;12.818;2023-02-28T14:27:32;10.50;1.00
1455;DHT22;721;48.168;12.818;2023-02-28T14:30:19;10.60;1.00
1455;DHT22;721;48.168;12.818;2023-02-28T14:33:00;10.40;1.00
1455;DHT22;721;48.168;12.818;2023-02-28T14:35:43;10.60;1.00
1455;DHT22;721;48.168;12.818;2023-02-28T14:38:16;10.60;1.00
1455;DHT22;721;48.168;12.818;2023-02-28T14:40:47;10.10;1.00
1455;DHT22;721;48.168;12.818;2023-02-28T14:43:21;10.70;1.00
1455;DHT22;721;48.168;12.818;2023-02-28T14:45:51;10.80;1.00
1455;DHT22;721;48.168;12.818;2023-02-28T14:48:21;11.10;1.00
1455;DHT22;721;48.168;12.818;2023-02-28T14:50:51;11.50;1.00
1455;DHT22;721;48.168;12.818;2023-02-28T14:53:20;11.20;1.00
1455;DHT22;721;48.168;12.818;2023-02-28T14:55:48;11.20;1.00
1455;DHT22;721;48.168;12.818;2023-02-28T14:58:23;11.50;1.00
1455;DHT22;721;48.168;12.818;2023-02-28T15:00:52;10.10;1.00
1455;DHT22;721;48.168;12.818;2023-02-28T15:03:23;9.60;1.00
1455;DHT22;721;48.168;12.818;2023-02-28T15:05:55;10.10;1.00
1455;DHT22;721;48.168;12.818;2023-02-28T15:08:22;9.80;1.00
1455;DHT22;721;48.168;12.818;2023-02-28T15:10:55;9.80;1.00
1455;DHT22;721;48.168;12.818;2023-02-28T15:13:23;10.20;1.00
1455;DHT22;721;48.168;12.818;2023-02-28T15:15:54;10.20;1.00
1455;DHT22;721;48.168;12.818;2023-02-28T15:18:30;10.10;1.00
1455;DHT22;721;48.168;12.818;2023-02-28T15:21:00;9.80;1.00
1455;DHT22;721;48.168;12.818;2023-02-28T15:23:28;9.70;1.00
1455;DHT22;721;48.168;12.818;2023-02-28T15:25:56;9.70;1.00
1455;DHT22;721;48.168;12.818;2023-02-28T15:28:24;9.40;1.00
1455;DHT22;721;48.168;12.818;2023-02-28T15:30:53;8.20;1.00
1455;DHT22;721;48.168;12.818;2023-02-28T15:33:22;8.00;1.00
1455;DHT22;721;48.168;12.818;2023-02-28T15:36:02;8.10;1.00
1455;DHT22;721;48.168;12.818;2023-02-28T15:38:29;7.90;1.00
1455;DHT22;721;48.168;12.818;2023-02-28T15:40:57;7.90;1.00
1455;DHT22;721;48.168;12.818;2023-02-28T15:43:26;7.60;1.00
1455;DHT22;721;48.168;12.818;2023-02-28T15:45:56;7.40;1.00
1455;DHT22;721;48.168;12.818;2023-02-28T15:48:26;7.20;1.00
1455;DHT22;721;48.168;12.818;2023-02-28T15:50:57;7.30;1.00
1455;DHT22;721;48.168;12.818;2023-02-28T15:53:30;7.10;1.00
1455;DHT22;721;48.168;12.818;2023-02-28T15:56:00;7.00;1.00
1455;DHT22;721;48.168;12.818;2023-02-28T15:58:28;6.90;1.00
1455;DHT22;721;48.168;12.818;2023-02-28T16:01:08;6.70;1.00
1455;DHT22;721;48.168;12.818;2023-02-28T16:03:40;6.80;1.00
1455;DHT22;721;48.168;12.818;2023-02-28T16:06:33;7.00;1.00
1455;DHT22;721;48.168;12.818;2023-02-28T16:09:00;6.90;1.00
1455;DHT22;721;48.168;12.818;2023-02-28T16:11:28;7.40;1.00
1455;DHT22;721;48.168;12.818;2023-02-28T16:13:56;6.90;1.00
1455;DHT22;721;48.168;12.818;2023-02-28T16:16:24;6.70;1.00
1455;DHT22;721;48.168;12.818;2023-02-28T16:18:53;6.70;1.00
1455;DHT22;721;48.168;12.818;2023-02-28T16:21:20;6.50;1.00
1455;DHT22;721;48.168;12.818;2023-02-28T16:23:48;6.50;1.00
1455;DHT22;721;48.168;12.818;2023-02-28T16:26:19;6.50;1.00
1455;DHT22;721;48.168;12.818;2023-02-28T16:28:47;6.10;1.00
1455;DHT22;721;48.168;12.818;2023-02-28T16:31:14;6.00;1.00
1455;DHT22;721;48.168;12.818;2023-02-28T16:33:42;6.00;1.00
1455;DHT22;721;48.168;12.818;2023-02-28T16:36:13;6.00;1.00
1455;DHT22;721;48.168;12.818;2023-02-28T16:38:40;6.10;1.00
1455;DHT22;721;48.168;12.818;2023-02-28T16:41:12;5.90;1.00
1455;DHT22;721;48.168;12.818;2023-02-28T16:43:42;5.80;1.00
1455;DHT22;721;48.168;12.818;2023-02-28T16:46:11;5.60;1.00
1455;DHT22;721;48.168;12.818;2023-02-28T16:48:38;5.60;1.00
1455;DHT22;721;48.168;12.818;2023-02-28T16:51:06;5.30;1.00
1455;DHT22;721;48.168;12.818;2023-02-28T16:53:33;5.40;1.00
1455;DHT22;721;48.168;12.818;2023-02-28T16:56:00;5.50;1.00
1455;DHT22;721;48.168;12.818;2023-02-28T16:58:29;5.60;1.00
1455;DHT22;721;48.168;12.818;2023-02-28T17:00:56;5.60;1.00
1455;DHT22;721;48.168;12.818;2023-02-28T17:03:25;5.50;1.00